createdAt,value
2018-07-06T00:00:11.552Z,99.99
2018-07-06T00:01:11.719Z,99.40
2018-07-06T00:02:11.891Z,99.64
2018-07-06T00:04:54.200Z,99.99
2018-07-06T00:05:54.357Z,99.99
2018-07-06T00:06:54.518Z,99.99
2018-07-06T00:07:54.694Z,99.99
2018-07-06T00:08:54.857Z,99.93
2018-07-06T00:09:55.034Z,99.55
2018-07-06T00:10:55.227Z,98.49
2018-07-06T00:11:55.375Z,98.58
2018-07-06T00:12:55.525Z,98.00
2018-07-06T00:13:55.696Z,96.89
2018-07-06T00:14:55.867Z,98.10
2018-07-06T00:15:56.030Z,98.20
2018-07-06T00:16:56.200Z,97.81
2018-07-06T00:17:56.357Z,98.10
2018-07-06T00:18:56.526Z,97.52
2018-07-06T00:21:39.077Z,97.52
2018-07-06T00:22:39.244Z,98.49
2018-07-06T00:23:39.410Z,98.39
2018-07-06T00:24:39.585Z,99.35
2018-07-06T00:25:39.752Z,99.60
2018-07-06T00:26:39.920Z,99.99
2018-07-06T00:27:40.089Z,98.92
2018-07-06T00:28:40.259Z,99.30
2018-07-06T00:29:40.438Z,98.63
2018-07-06T00:30:40.597Z,99.40
2018-07-06T00:33:23.225Z,99.99
2018-07-06T00:34:23.337Z,99.99
2018-07-06T00:35:23.504Z,99.99
2018-07-06T00:36:23.671Z,99.99
2018-07-06T00:37:23.830Z,99.99
2018-07-06T00:38:23.991Z,99.99
2018-07-06T00:39:24.165Z,99.99
2018-07-06T00:40:24.336Z,99.99
2018-07-06T00:41:24.502Z,99.99
2018-07-06T00:42:24.671Z,99.99
2018-07-06T00:45:07.247Z,99.99
2018-07-06T00:46:07.407Z,99.99
2018-07-06T00:47:07.576Z,99.99
2018-07-06T00:48:07.749Z,99.99
2018-07-06T00:49:07.910Z,99.99
2018-07-06T00:50:08.085Z,99.99
2018-07-06T00:51:08.236Z,99.99
2018-07-06T00:52:08.406Z,99.99
2018-07-06T00:53:08.574Z,99.99
2018-07-06T00:54:08.738Z,99.99
2018-07-06T00:55:08.907Z,99.99
2018-07-06T00:56:09.081Z,99.99
2018-07-06T00:57:09.246Z,99.99
2018-07-06T00:58:09.430Z,99.99
2018-07-06T00:59:09.593Z,99.99
2018-07-06T01:01:52.210Z,99.99
2018-07-06T01:02:52.349Z,99.99
2018-07-06T01:03:52.493Z,99.99
2018-07-06T01:04:52.673Z,99.99
2018-07-06T01:05:52.842Z,99.99
2018-07-06T01:06:53.015Z,99.99
2018-07-06T01:07:53.194Z,99.99
2018-07-06T01:08:53.359Z,99.99
2018-07-06T01:09:53.536Z,99.99
2018-07-06T01:10:53.699Z,99.99
2018-07-06T01:13:35.973Z,99.99
2018-07-06T01:14:36.143Z,99.99
2018-07-06T01:15:36.319Z,99.99
2018-07-06T01:16:36.509Z,99.99
2018-07-06T01:17:36.700Z,99.99
2018-07-06T01:18:36.868Z,99.99
2018-07-06T01:19:37.040Z,99.99
2018-07-06T01:20:37.211Z,99.99
2018-07-06T01:21:37.426Z,99.99
2018-07-06T01:22:37.547Z,99.99
2018-07-06T01:25:20.109Z,99.99
2018-07-06T01:26:20.292Z,99.99
2018-07-06T01:27:20.460Z,99.99
2018-07-06T01:28:20.628Z,99.99
2018-07-06T01:29:20.802Z,99.99
2018-07-06T01:30:20.976Z,99.99
2018-07-06T01:31:21.143Z,99.99
2018-07-06T01:32:21.320Z,99.99
2018-07-06T01:33:21.484Z,99.99
2018-07-06T01:34:21.652Z,99.99
2018-07-06T01:37:03.918Z,99.99
2018-07-06T01:38:04.092Z,99.99
2018-07-06T01:39:04.261Z,99.99
2018-07-06T01:40:04.432Z,99.99
2018-07-06T01:41:04.609Z,99.99
2018-07-06T01:42:04.772Z,99.99
2018-07-06T01:43:04.942Z,99.99
2018-07-06T01:44:05.985Z,99.99
2018-07-06T01:45:05.278Z,99.99
2018-07-06T01:46:05.448Z,99.99
2018-07-06T01:47:05.612Z,99.99
2018-07-06T01:48:05.777Z,99.99
2018-07-06T01:49:05.945Z,99.99
2018-07-06T01:50:06.117Z,99.99
2018-07-06T01:51:06.292Z,99.99
2018-07-06T01:53:48.854Z,99.99
2018-07-06T01:54:49.052Z,99.99
2018-07-06T01:55:50.015Z,99.99
2018-07-06T01:56:49.382Z,99.99
2018-07-06T01:57:49.555Z,99.99
2018-07-06T01:58:49.722Z,99.99
2018-07-06T01:59:49.900Z,99.99
2018-07-06T02:00:50.076Z,99.99
2018-07-06T02:01:50.237Z,99.99
2018-07-06T02:02:50.406Z,99.99
2018-07-06T02:03:50.577Z,99.99
2018-07-06T02:04:50.741Z,99.99
2018-07-06T02:05:50.915Z,99.99
2018-07-06T02:06:51.089Z,99.99
2018-07-06T02:07:51.258Z,99.99
2018-07-06T02:10:33.820Z,99.99
2018-07-06T02:11:33.994Z,99.99
2018-07-06T02:12:34.157Z,99.99
2018-07-06T02:13:34.319Z,99.99
2018-07-06T02:14:34.491Z,99.99
2018-07-06T02:15:34.661Z,99.99
2018-07-06T02:16:34.835Z,99.99
2018-07-06T02:17:35.560Z,99.99
2018-07-06T02:18:35.226Z,99.99
2018-07-06T02:19:35.391Z,99.99
2018-07-06T02:20:35.561Z,99.99
2018-07-06T02:21:35.734Z,99.99
2018-07-06T02:22:35.904Z,99.99
2018-07-06T02:23:36.075Z,99.99
2018-07-06T02:24:36.245Z,99.99
2018-07-06T02:27:18.815Z,99.99
2018-07-06T02:28:18.986Z,99.99
2018-07-06T02:29:19.163Z,99.99
2018-07-06T02:30:19.326Z,99.99
2018-07-06T02:31:19.494Z,99.99
2018-07-06T02:32:19.669Z,99.99
2018-07-06T02:33:19.843Z,99.99
2018-07-06T02:34:20.009Z,99.99
2018-07-06T02:35:20.193Z,99.99
2018-07-06T02:36:20.376Z,99.99
2018-07-06T02:37:20.533Z,99.99
2018-07-06T02:38:20.705Z,99.99
2018-07-06T02:39:20.883Z,99.99
2018-07-06T02:40:21.057Z,99.99
2018-07-06T02:41:21.231Z,99.99
2018-07-06T02:44:03.794Z,99.99
2018-07-06T02:45:03.966Z,99.99
2018-07-06T02:46:04.124Z,99.99
2018-07-06T02:47:04.286Z,99.99
2018-07-06T02:48:04.456Z,99.99
2018-07-06T02:49:04.627Z,99.99
2018-07-06T02:50:04.796Z,99.99
2018-07-06T02:51:04.966Z,99.99
2018-07-06T02:52:05.138Z,99.99
2018-07-06T02:53:05.313Z,99.99
2018-07-06T02:54:05.472Z,99.99
2018-07-06T02:55:05.657Z,99.99
2018-07-06T02:56:05.796Z,99.99
2018-07-06T02:57:05.960Z,99.99
2018-07-06T02:58:06.119Z,99.99
2018-07-06T03:00:48.392Z,99.99
2018-07-06T03:01:48.565Z,99.99
2018-07-06T03:02:48.734Z,99.99
2018-07-06T03:03:48.894Z,99.99
2018-07-06T03:04:49.069Z,99.99
2018-07-06T03:05:49.242Z,99.99
2018-07-06T03:06:49.402Z,99.99
2018-07-06T03:07:49.571Z,99.99
2018-07-06T03:08:49.743Z,99.99
2018-07-06T03:09:49.910Z,99.99
2018-07-06T03:10:50.104Z,99.99
2018-07-06T03:11:50.272Z,99.99
2018-07-06T03:12:50.484Z,99.99
2018-07-06T03:13:50.632Z,99.99
2018-07-06T03:14:50.792Z,99.99
2018-07-06T03:17:33.684Z,99.99
2018-07-06T03:18:33.867Z,99.99
2018-07-06T03:19:34.036Z,99.99
2018-07-06T03:20:34.205Z,99.99
2018-07-06T03:21:34.376Z,99.99
2018-07-06T03:22:34.548Z,99.99
2018-07-06T03:23:34.855Z,99.99
2018-07-06T03:24:34.853Z,99.99
2018-07-06T03:25:35.017Z,99.99
2018-07-06T03:26:35.183Z,99.99
2018-07-06T03:27:35.359Z,99.99
2018-07-06T03:28:35.675Z,99.99
2018-07-06T03:29:35.706Z,99.99
2018-07-06T03:30:35.867Z,99.99
2018-07-06T03:31:36.037Z,99.99
2018-07-06T03:34:18.624Z,99.99
2018-07-06T03:35:18.789Z,99.99
2018-07-06T03:36:18.971Z,99.99
2018-07-06T03:37:19.204Z,99.99
2018-07-06T03:38:19.287Z,99.99
2018-07-06T03:39:19.462Z,99.99
2018-07-06T03:40:19.634Z,99.99
2018-07-06T03:41:19.803Z,99.99
2018-07-06T03:42:19.973Z,99.99
2018-07-06T03:43:20.142Z,99.99
2018-07-06T03:46:02.784Z,99.99
2018-07-06T03:47:02.946Z,99.99
2018-07-06T03:48:03.150Z,99.99
2018-07-06T03:49:03.290Z,99.99
2018-07-06T03:50:03.459Z,99.99
2018-07-06T03:51:03.628Z,99.99
2018-07-06T03:52:03.786Z,99.99
2018-07-06T03:53:03.962Z,99.99
2018-07-06T03:54:04.137Z,99.99
2018-07-06T03:55:04.293Z,99.99
2018-07-06T03:56:04.486Z,99.99
2018-07-06T03:57:04.650Z,99.99
2018-07-06T03:58:04.850Z,99.99
2018-07-06T03:59:05.004Z,99.99
2018-07-06T04:00:05.167Z,99.99
2018-07-06T04:02:47.449Z,99.99
2018-07-06T04:03:47.630Z,99.99
2018-07-06T04:04:47.798Z,99.99
2018-07-06T04:05:47.969Z,99.99
2018-07-06T04:06:48.134Z,99.99
2018-07-06T04:07:48.303Z,99.99
2018-07-06T04:08:48.474Z,99.99
2018-07-06T04:09:48.644Z,99.99
2018-07-06T04:10:48.822Z,99.99
2018-07-06T04:11:48.983Z,99.99
2018-07-06T04:12:49.151Z,99.99
2018-07-06T04:13:49.322Z,99.99
2018-07-06T04:14:49.495Z,99.99
2018-07-06T04:15:49.663Z,99.99
2018-07-06T04:16:49.829Z,99.99
2018-07-06T04:19:32.402Z,99.99
2018-07-06T04:20:32.569Z,99.99
2018-07-06T04:21:32.729Z,99.99
2018-07-06T04:22:32.897Z,99.99
2018-07-06T04:23:33.068Z,99.99
2018-07-06T04:24:33.246Z,99.99
2018-07-06T04:25:33.409Z,99.99
2018-07-06T04:26:33.608Z,99.99
2018-07-06T04:27:33.773Z,99.99
2018-07-06T04:28:33.917Z,99.99
2018-07-06T04:29:34.071Z,99.99
2018-07-06T04:30:34.238Z,99.99
2018-07-06T04:31:34.407Z,99.99
2018-07-06T04:32:34.586Z,99.99
2018-07-06T04:33:34.760Z,99.99
2018-07-06T04:37:35.342Z,99.99
2018-07-06T04:38:35.532Z,99.99
2018-07-06T04:39:35.709Z,99.99
2018-07-06T04:40:35.872Z,99.99
2018-07-06T04:41:36.039Z,99.99
2018-07-06T04:42:36.208Z,99.99
2018-07-06T04:43:36.371Z,99.99
2018-07-06T04:44:36.538Z,99.99
2018-07-06T04:45:36.695Z,99.99
2018-07-06T04:46:36.863Z,99.99
2018-07-06T04:49:19.139Z,99.99
2018-07-06T04:50:19.313Z,99.99
2018-07-06T04:51:19.480Z,99.99
2018-07-06T04:52:19.647Z,99.99
2018-07-06T04:53:19.822Z,99.99
2018-07-06T04:54:19.981Z,99.99
2018-07-06T04:55:20.152Z,99.99
2018-07-06T04:56:20.322Z,99.99
2018-07-06T04:57:20.490Z,99.99
2018-07-06T04:58:20.658Z,99.99
2018-07-06T05:01:03.250Z,99.99
2018-07-06T05:02:03.418Z,99.99
2018-07-06T05:03:03.585Z,99.99
2018-07-06T05:04:03.752Z,99.99
2018-07-06T05:05:03.941Z,99.99
2018-07-06T05:06:04.072Z,99.99
2018-07-06T05:07:04.257Z,99.99
2018-07-06T05:08:04.424Z,99.99
2018-07-06T05:09:04.592Z,99.99
2018-07-06T05:10:04.766Z,99.99
2018-07-06T05:12:47.045Z,99.99
2018-07-06T05:13:47.224Z,99.99
2018-07-06T05:14:47.398Z,99.99
2018-07-06T05:15:47.574Z,99.99
2018-07-06T05:16:47.748Z,99.99
2018-07-06T05:17:47.915Z,99.99
2018-07-06T05:18:48.077Z,99.99
2018-07-06T05:19:48.247Z,99.99
2018-07-06T05:20:48.426Z,99.99
2018-07-06T05:21:48.597Z,99.99
2018-07-06T05:24:20.866Z,99.99
2018-07-06T05:25:21.035Z,99.99
2018-07-06T05:26:21.207Z,99.99
2018-07-06T05:27:29.319Z,99.99
2018-07-06T05:28:21.582Z,99.99
2018-07-06T05:29:21.621Z,99.99
2018-07-06T05:30:21.781Z,99.99
2018-07-06T05:31:21.953Z,99.99
2018-07-06T05:32:22.134Z,99.99
2018-07-06T05:33:22.294Z,99.99
2018-07-06T05:34:22.465Z,99.99
2018-07-06T05:35:22.632Z,99.99
2018-07-06T05:36:22.802Z,99.99
2018-07-06T05:37:22.979Z,99.99
2018-07-06T05:40:05.538Z,99.99
2018-07-06T05:41:05.707Z,99.99
2018-07-06T05:42:05.878Z,99.99
2018-07-06T05:43:06.049Z,99.99
2018-07-06T05:44:06.215Z,99.99
2018-07-06T05:45:06.388Z,99.99
2018-07-06T05:46:06.555Z,99.99
2018-07-06T05:47:06.725Z,99.99
2018-07-06T05:48:06.897Z,99.99
2018-07-06T05:49:07.070Z,99.99
2018-07-06T05:50:07.246Z,99.99
2018-07-06T05:51:07.399Z,99.99
2018-07-06T05:52:16.511Z,99.99
2018-07-06T05:53:07.785Z,99.99
2018-07-06T05:54:07.970Z,99.99
2018-07-06T05:55:08.126Z,99.99
2018-07-06T05:56:08.287Z,99.99
2018-07-06T05:57:08.460Z,99.99
2018-07-06T05:58:08.623Z,99.99
2018-07-06T05:59:08.808Z,99.99
2018-07-06T06:00:16.116Z,99.99
2018-07-06T06:01:09.162Z,99.99
2018-07-06T06:02:09.335Z,99.99
2018-07-06T06:03:09.506Z,99.99
2018-07-06T06:04:09.673Z,99.99
2018-07-06T06:05:09.840Z,97.96
2018-07-06T06:06:10.029Z,96.12
2018-07-06T06:07:10.237Z,94.58
2018-07-06T06:08:10.391Z,91.20
2018-07-06T06:09:10.550Z,92.56
2018-07-06T06:10:10.743Z,90.09
2018-07-06T06:11:10.902Z,88.65
2018-07-06T06:12:11.115Z,87.59
2018-07-06T06:13:19.244Z,85.94
2018-07-06T06:14:11.496Z,83.73
2018-07-06T06:15:11.582Z,82.86
2018-07-06T06:16:11.775Z,81.90
2018-07-06T06:17:11.944Z,83.53
2018-07-06T06:18:12.145Z,82.67
2018-07-06T06:19:12.283Z,83.44
2018-07-06T06:21:44.894Z,81.41
2018-07-06T06:22:44.944Z,80.83
2018-07-06T06:23:45.124Z,79.49
2018-07-06T06:24:45.323Z,79.39
2018-07-06T06:25:45.487Z,79.77
2018-07-06T06:26:45.650Z,78.81
2018-07-06T06:27:45.823Z,79.68
2018-07-06T06:28:45.991Z,80.35
2018-07-06T06:29:46.159Z,79.68
2018-07-06T06:30:46.315Z,78.23
2018-07-06T06:31:46.488Z,78.61
2018-07-06T06:32:46.660Z,79.83
2018-07-06T06:33:46.897Z,82.24
2018-07-06T06:34:47.591Z,84.55
2018-07-06T06:35:47.173Z,81.95
2018-07-06T06:38:29.419Z,83.53
2018-07-06T06:39:29.645Z,83.83
2018-07-06T06:40:29.763Z,81.99
2018-07-06T06:41:29.936Z,81.32
2018-07-06T06:42:30.108Z,83.25
2018-07-06T06:43:30.281Z,81.66
2018-07-06T06:44:30.447Z,81.02
2018-07-06T06:45:30.615Z,81.12
2018-07-06T06:46:30.791Z,78.61
2018-07-06T06:47:30.939Z,77.17
2018-07-06T06:48:31.113Z,77.46
2018-07-06T06:49:31.283Z,80.02
2018-07-06T06:50:31.453Z,80.26
2018-07-06T06:51:31.619Z,79.35
2018-07-06T06:52:31.793Z,78.23
2018-07-06T06:55:14.089Z,80.16
2018-07-06T06:56:14.261Z,79.39
2018-07-06T06:57:14.434Z,78.52
2018-07-06T06:58:14.599Z,76.53
2018-07-06T06:59:14.761Z,74.79
2018-07-06T07:00:14.937Z,74.12
2018-07-06T07:01:15.099Z,73.93
2018-07-06T07:02:15.272Z,73.38
2018-07-06T07:03:15.430Z,73.09
2018-07-06T07:04:15.606Z,72.71
2018-07-06T07:06:58.185Z,73.00
2018-07-06T07:07:58.355Z,71.06
2018-07-06T07:08:58.523Z,70.78
2018-07-06T07:09:58.696Z,69.81
2018-07-06T07:10:58.866Z,70.29
2018-07-06T07:11:59.038Z,73.44
2018-07-06T07:12:59.207Z,75.27
2018-07-06T07:13:59.410Z,74.99
2018-07-06T07:15:00.482Z,74.64
2018-07-06T07:15:59.662Z,74.93
2018-07-06T07:18:32.244Z,74.99
2018-07-06T07:19:32.430Z,74.54
2018-07-06T07:20:32.601Z,71.39
2018-07-06T07:21:32.772Z,72.71
2018-07-06T07:22:40.939Z,70.78
2018-07-06T07:23:33.093Z,71.58
2018-07-06T07:24:33.249Z,71.88
2018-07-06T07:25:33.419Z,70.72
2018-07-06T07:26:33.605Z,69.26
2018-07-06T07:27:33.779Z,68.43
2018-07-06T07:28:33.944Z,67.85
2018-07-06T07:29:34.112Z,66.40
2018-07-06T07:30:34.282Z,67.14
2018-07-06T07:31:34.461Z,66.20
2018-07-06T07:32:35.506Z,67.46
2018-07-06T07:33:34.791Z,68.72
2018-07-06T07:34:34.961Z,68.24
2018-07-06T07:35:35.132Z,68.91
2018-07-06T07:36:35.319Z,67.75
2018-07-06T07:37:35.500Z,66.40
2018-07-06T07:40:17.778Z,67.56
2018-07-06T07:41:17.945Z,69.30
2018-07-06T07:42:18.121Z,66.59
2018-07-06T07:43:18.292Z,66.17
2018-07-06T07:44:18.457Z,67.14
2018-07-06T07:45:18.646Z,68.59
2018-07-06T07:46:18.804Z,68.59
2018-07-06T07:47:18.976Z,71.97
2018-07-06T07:48:19.150Z,68.88
2018-07-06T07:49:19.323Z,68.59
2018-07-06T07:50:19.496Z,68.88
2018-07-06T07:51:19.665Z,69.04
2018-07-06T07:52:19.849Z,70.20
2018-07-06T07:53:20.015Z,72.80
2018-07-06T07:54:27.870Z,72.32
2018-07-06T07:55:20.385Z,71.74
2018-07-06T07:56:20.583Z,72.52
2018-07-06T07:57:20.756Z,71.48
2018-07-06T07:58:28.086Z,72.36
2018-07-06T07:59:21.125Z,68.01
2018-07-06T08:00:21.375Z,67.33
2018-07-06T08:01:21.604Z,67.82
2018-07-06T08:02:21.639Z,67.91
2018-07-06T08:03:21.814Z,67.46
2018-07-06T08:04:21.988Z,67.85
2018-07-06T08:05:22.152Z,71.00
2018-07-06T08:06:22.328Z,66.01
2018-07-06T08:07:22.507Z,66.20
2018-07-06T08:08:22.680Z,67.27
2018-07-06T08:09:22.848Z,65.72
2018-07-06T08:10:23.020Z,64.56
2018-07-06T08:11:23.199Z,65.72
2018-07-06T08:12:23.363Z,65.05
2018-07-06T08:15:05.641Z,63.89
2018-07-06T08:16:05.815Z,66.08
2018-07-06T08:17:05.982Z,67.82
2018-07-06T08:18:06.153Z,68.88
2018-07-06T08:19:06.332Z,67.08
2018-07-06T08:20:06.503Z,69.10
2018-07-06T08:21:06.686Z,65.05
2018-07-06T08:22:06.856Z,66.40
2018-07-06T08:23:07.024Z,65.63
2018-07-06T08:24:14.649Z,64.31
2018-07-06T08:25:09.196Z,63.50
2018-07-06T08:26:07.489Z,63.21
2018-07-06T08:27:07.656Z,63.53
2018-07-06T08:28:07.815Z,64.40
2018-07-06T08:29:08.218Z,63.34
2018-07-06T08:30:08.156Z,63.53
2018-07-06T08:31:15.537Z,63.53
2018-07-06T08:32:08.586Z,61.21
2018-07-06T08:33:08.745Z,63.47
2018-07-06T08:34:08.918Z,65.78
2018-07-06T08:35:09.118Z,66.75
2018-07-06T08:36:09.312Z,64.85
2018-07-06T08:37:09.486Z,64.76
2018-07-06T08:38:09.662Z,63.98
2018-07-06T08:39:09.833Z,61.79
2018-07-06T08:40:10.004Z,60.05
2018-07-06T08:41:10.175Z,59.38
2018-07-06T08:43:53.765Z,60.24
2018-07-06T08:44:53.937Z,59.15
2018-07-06T08:45:54.090Z,60.21
2018-07-06T08:46:54.262Z,62.85
2018-07-06T08:47:54.435Z,60.53
2018-07-06T08:48:55.480Z,60.31
2018-07-06T08:49:54.777Z,62.34
2018-07-06T08:50:54.952Z,63.40
2018-07-06T08:51:55.116Z,64.18
2018-07-06T08:52:55.291Z,62.76
2018-07-06T08:53:55.466Z,61.30
2018-07-06T08:54:55.632Z,61.98
2018-07-06T08:55:55.848Z,59.95
2018-07-06T08:56:55.973Z,60.50
2018-07-06T08:58:03.821Z,62.15
2018-07-06T08:58:56.353Z,62.63
2018-07-06T08:59:56.517Z,62.73
2018-07-06T09:00:57.458Z,62.34
2018-07-06T09:02:04.857Z,62.73
2018-07-06T09:02:57.009Z,65.47
2018-07-06T09:03:57.182Z,68.40
2018-07-06T09:04:57.346Z,71.00
2018-07-06T09:05:57.524Z,66.11
2018-07-06T09:06:57.699Z,65.72
2018-07-06T09:07:57.886Z,65.85
2018-07-06T09:08:58.040Z,64.21
2018-07-06T09:09:58.213Z,61.24
2018-07-06T09:10:58.398Z,63.18
2018-07-06T09:11:58.561Z,61.66
2018-07-06T09:12:58.743Z,59.98
2018-07-06T09:13:58.909Z,62.01
2018-07-06T09:14:59.073Z,62.11
2018-07-06T09:15:59.265Z,61.53
2018-07-06T09:16:59.414Z,59.89
2018-07-06T09:19:41.814Z,60.95
2018-07-06T09:20:41.862Z,60.47
2018-07-06T09:21:42.034Z,60.37
2018-07-06T09:22:42.207Z,61.21
2018-07-06T09:23:42.380Z,62.18
2018-07-06T09:24:49.732Z,65.30
2018-07-06T09:25:42.880Z,63.08
2018-07-06T09:26:42.933Z,64.24
2018-07-06T09:27:50.469Z,62.92
2018-07-06T09:28:43.496Z,60.01
2018-07-06T09:29:43.483Z,59.33
2018-07-06T09:30:43.619Z,59.46
2018-07-06T09:31:43.772Z,60.62
2018-07-06T09:32:43.945Z,58.39
2018-07-06T09:33:44.119Z,57.62
2018-07-06T09:34:44.323Z,58.11
2018-07-06T09:35:44.533Z,59.07
2018-07-06T09:36:44.702Z,58.20
2018-07-06T09:37:44.877Z,58.72
2018-07-06T09:40:17.162Z,59.20
2018-07-06T09:41:17.323Z,56.87
2018-07-06T09:42:17.491Z,56.20
2018-07-06T09:43:17.711Z,57.48
2018-07-06T09:44:18.145Z,57.17
2018-07-06T09:45:18.858Z,57.65
2018-07-06T09:46:18.092Z,56.39
2018-07-06T09:47:25.402Z,57.55
2018-07-06T09:48:18.494Z,58.11
2018-07-06T09:49:18.543Z,58.30
2018-07-06T09:50:19.634Z,59.56
2018-07-06T09:51:27.603Z,60.55
2018-07-06T09:52:19.022Z,58.33
2018-07-06T09:53:19.194Z,57.55
2018-07-06T09:54:19.369Z,58.14
2018-07-06T09:55:19.536Z,57.55
2018-07-06T09:56:19.713Z,57.26
2018-07-06T09:57:19.901Z,58.04
2018-07-06T09:58:20.081Z,59.30
2018-07-06T09:59:22.222Z,58.72
2018-07-06T10:00:28.358Z,57.55
2018-07-06T10:01:20.523Z,57.65
2018-07-06T10:02:20.692Z,58.33
2018-07-06T10:03:43.861Z,58.98
2018-07-06T10:04:21.135Z,58.20
2018-07-06T10:05:21.361Z,58.81
2018-07-06T10:06:22.497Z,59.59
2018-07-06T10:07:23.846Z,58.14
2018-07-06T10:08:24.700Z,57.45
2018-07-06T10:10:25.568Z,58.23
2018-07-06T10:12:54.656Z,57.26
2018-07-06T10:13:54.669Z,56.36
2018-07-06T10:14:54.872Z,58.98
2018-07-06T10:15:55.013Z,58.23
2018-07-06T10:16:55.188Z,57.94
2018-07-06T10:17:55.714Z,57.17
2018-07-06T10:18:55.578Z,57.36
2018-07-06T10:19:55.692Z,56.20
2018-07-06T10:20:55.832Z,55.62
2018-07-06T10:21:55.995Z,57.23
2018-07-06T10:23:04.980Z,56.77
2018-07-06T10:23:56.257Z,56.56
2018-07-06T10:24:56.435Z,55.71
2018-07-06T10:25:56.621Z,54.94
2018-07-06T10:26:56.895Z,55.52
2018-07-06T10:27:57.030Z,54.94
2018-07-06T10:28:57.149Z,56.29
2018-07-06T10:29:57.288Z,55.83
2018-07-06T10:31:05.421Z,55.54
2018-07-06T10:31:57.582Z,53.89
2018-07-06T10:32:57.830Z,52.71
2018-07-06T10:33:57.977Z,52.93
2018-07-06T10:34:58.099Z,52.06
2018-07-06T10:35:58.294Z,52.83
2018-07-06T10:36:58.463Z,51.76
2018-07-06T10:37:58.636Z,51.57
2018-07-06T10:38:58.808Z,52.64
2018-07-06T10:40:01.865Z,51.37
2018-07-06T10:40:59.423Z,52.44
2018-07-06T10:44:35.517Z,51.57
2018-07-06T10:45:33.053Z,50.70
2018-07-06T10:46:33.256Z,52.15
2018-07-06T10:47:33.414Z,51.09
2018-07-06T10:48:33.589Z,51.18
2018-07-06T10:49:33.756Z,50.41
2018-07-06T10:50:33.933Z,49.73
2018-07-06T10:51:34.126Z,49.73
2018-07-06T10:52:34.296Z,49.92
2018-07-06T10:53:34.479Z,49.92
2018-07-06T10:54:35.541Z,49.80
2018-07-06T10:55:34.842Z,50.60
2018-07-06T10:56:35.024Z,49.92
2018-07-06T10:57:35.196Z,49.34
2018-07-06T10:58:43.115Z,49.73
2018-07-06T10:59:35.488Z,49.73
2018-07-06T11:00:35.661Z,49.82
2018-07-06T11:01:35.838Z,49.92
2018-07-06T11:02:43.184Z,50.02
2018-07-06T11:03:36.244Z,49.82
2018-07-06T11:04:37.079Z,50.60
2018-07-06T11:05:36.624Z,50.60
2018-07-06T11:06:36.880Z,50.60
2018-07-06T11:07:37.014Z,50.12
2018-07-06T11:08:37.089Z,50.50
2018-07-06T11:09:37.248Z,50.21
2018-07-06T11:10:37.422Z,51.64
2018-07-06T11:11:37.631Z,51.18
2018-07-06T11:12:37.762Z,50.38
2018-07-06T11:13:37.933Z,51.47
2018-07-06T11:14:38.118Z,51.37
2018-07-06T11:15:38.326Z,52.15
2018-07-06T11:16:38.535Z,51.28
2018-07-06T11:19:20.705Z,51.37
2018-07-06T11:20:20.874Z,50.62
2018-07-06T11:21:21.049Z,50.12
2018-07-06T11:22:29.227Z,49.92
2018-07-06T11:23:21.406Z,51.28
2018-07-06T11:24:21.570Z,50.99
2018-07-06T11:25:21.779Z,52.64
2018-07-06T11:26:21.896Z,51.28
2018-07-06T11:27:30.025Z,52.06
2018-07-06T11:28:22.271Z,52.83
2018-07-06T11:29:23.439Z,52.12
2018-07-06T11:30:22.516Z,53.99
2018-07-06T11:31:22.709Z,52.73
2018-07-06T11:32:22.878Z,53.99
2018-07-06T11:33:23.050Z,52.34
2018-07-06T11:34:23.219Z,51.11
2018-07-06T11:35:23.391Z,51.31
2018-07-06T11:36:23.559Z,50.34
2018-07-06T11:37:23.732Z,50.53
2018-07-06T11:38:23.906Z,50.14
2018-07-06T11:39:24.074Z,50.04
2018-07-06T11:40:24.245Z,49.75
2018-07-06T11:41:24.425Z,50.04
2018-07-06T11:42:24.601Z,50.24
2018-07-06T11:43:32.467Z,50.09
2018-07-06T11:44:24.890Z,52.22
2018-07-06T11:45:25.813Z,51.35
2018-07-06T11:46:25.230Z,51.57
2018-07-06T11:47:25.406Z,50.50
2018-07-06T11:48:25.584Z,50.60
2018-07-06T11:49:25.751Z,49.85
2018-07-06T11:50:28.873Z,49.07
2018-07-06T11:51:26.210Z,51.37
2018-07-06T11:52:26.353Z,50.43
2018-07-06T11:53:27.311Z,50.43
2018-07-06T11:56:09.830Z,51.76
2018-07-06T11:57:10.005Z,51.47
2018-07-06T11:58:10.209Z,52.64
2018-07-06T11:59:10.877Z,51.50
2018-07-06T12:00:10.551Z,51.11
2018-07-06T12:01:18.176Z,51.21
2018-07-06T12:02:10.836Z,50.92
2018-07-06T12:03:12.881Z,50.70
2018-07-06T12:04:12.014Z,52.76
2018-07-06T12:05:11.307Z,51.21
2018-07-06T12:06:11.481Z,51.31
2018-07-06T12:07:11.657Z,50.43
2018-07-06T12:08:11.837Z,51.01
2018-07-06T12:09:12.002Z,51.53
2018-07-06T12:10:12.170Z,51.04
2018-07-06T12:11:13.888Z,51.14
2018-07-06T12:12:13.405Z,49.49
2018-07-06T12:13:12.686Z,50.16
2018-07-06T12:14:12.858Z,49.68
2018-07-06T12:15:13.888Z,50.48
2018-07-06T12:17:55.308Z,48.61
2018-07-06T12:18:55.449Z,50.29
2018-07-06T12:19:55.620Z,50.68
2018-07-06T12:20:55.838Z,49.99
2018-07-06T12:21:55.957Z,48.73
2018-07-06T12:22:56.131Z,48.64
2018-07-06T12:23:56.297Z,47.86
2018-07-06T12:25:03.930Z,48.52
2018-07-06T12:25:56.603Z,49.97
2018-07-06T12:26:56.834Z,50.65
2018-07-06T12:27:56.989Z,50.16
2018-07-06T12:28:57.106Z,48.90
2018-07-06T12:30:04.576Z,50.36
2018-07-06T12:30:57.481Z,49.77
2018-07-06T12:31:57.656Z,49.10
2018-07-06T12:32:57.822Z,49.58
2018-07-06T12:33:58.000Z,48.80
2018-07-06T12:34:58.176Z,49.61
2018-07-06T12:35:58.378Z,47.93
2018-07-06T12:36:58.592Z,50.62
2018-07-06T12:37:58.717Z,50.04
2018-07-06T12:38:58.891Z,50.14
2018-07-06T12:39:59.059Z,50.14
2018-07-06T12:42:41.352Z,48.52
2018-07-06T12:43:41.519Z,48.90
2018-07-06T12:44:41.694Z,48.13
2018-07-06T12:45:41.869Z,48.32
2018-07-06T12:46:42.052Z,48.61
2018-07-06T12:47:42.230Z,49.39
2018-07-06T12:48:51.276Z,48.80
2018-07-06T12:49:42.655Z,47.74
2018-07-06T12:50:42.701Z,47.16
2018-07-06T12:51:42.878Z,48.42
2018-07-06T12:52:43.051Z,46.48
2018-07-06T12:53:43.217Z,46.41
2018-07-06T12:54:43.389Z,46.79
2018-07-06T12:55:43.561Z,46.11
2018-07-06T12:56:43.718Z,46.69
2018-07-06T12:57:43.889Z,46.41
2018-07-06T12:58:44.102Z,46.38
2018-07-06T12:59:44.242Z,46.69
2018-07-06T13:00:44.466Z,45.61
2018-07-06T13:01:52.241Z,46.21
2018-07-06T13:02:45.064Z,46.09
2018-07-06T13:03:44.907Z,47.57
2018-07-06T13:04:45.075Z,46.98
2018-07-06T13:05:45.257Z,47.86
2018-07-06T13:06:45.427Z,47.08
2018-07-06T13:07:45.600Z,47.76
2018-07-06T13:08:45.768Z,47.98
2018-07-06T13:09:45.944Z,47.59
2018-07-06T13:10:46.142Z,46.79
2018-07-06T13:11:46.272Z,46.48
2018-07-06T13:12:48.411Z,46.96
2018-07-06T13:13:46.580Z,47.93
2018-07-06T13:14:46.758Z,50.36
2018-07-06T13:15:46.932Z,48.52
2018-07-06T13:18:29.294Z,48.90
2018-07-06T13:19:32.233Z,48.42
2018-07-06T13:20:29.658Z,48.22
2018-07-06T13:21:29.842Z,47.25
2018-07-06T13:22:30.010Z,47.62
2018-07-06T13:23:30.181Z,50.43
2018-07-06T13:24:30.352Z,49.27
2018-07-06T13:25:30.523Z,49.97
2018-07-06T13:26:30.696Z,48.42
2018-07-06T13:27:30.882Z,48.42
2018-07-06T13:30:03.291Z,48.44
2018-07-06T13:31:03.630Z,48.25
2018-07-06T13:32:03.571Z,48.25
2018-07-06T13:33:14.214Z,48.03
2018-07-06T13:34:03.885Z,48.42
2018-07-06T13:35:04.055Z,49.02
2018-07-06T13:36:04.225Z,48.35
2018-07-06T13:37:04.398Z,48.57
2018-07-06T13:38:04.571Z,47.38
2018-07-06T13:39:04.792Z,48.35
2018-07-06T13:40:04.927Z,46.98
2018-07-06T13:41:05.141Z,46.60
2018-07-06T13:42:05.209Z,45.24
2018-07-06T13:43:06.201Z,46.62
2018-07-06T13:44:05.498Z,46.04
2018-07-06T13:45:05.673Z,45.36
2018-07-06T13:46:05.845Z,45.26
2018-07-06T13:47:06.050Z,45.17
2018-07-06T13:49:48.335Z,46.21
2018-07-06T13:50:48.537Z,45.43
2018-07-06T13:51:49.299Z,45.43
2018-07-06T13:52:48.857Z,46.21
2018-07-06T13:53:49.023Z,45.92
2018-07-06T13:56:23.875Z,45.45
2018-07-06T13:57:23.088Z,44.78
2018-07-06T13:58:23.241Z,44.00
2018-07-06T13:59:28.564Z,45.43
2018-07-06T14:01:28.879Z,45.26
2018-07-06T14:02:25.256Z,44.58
2018-07-06T14:03:24.073Z,44.09
2018-07-06T14:04:25.404Z,43.80
2018-07-06T14:05:24.546Z,43.90
2018-07-06T14:06:32.320Z,44.58
2018-07-06T14:07:24.812Z,44.68
2018-07-06T14:08:25.026Z,44.29
2018-07-06T14:09:25.906Z,44.48
2018-07-06T14:10:25.332Z,43.22
2018-07-06T14:11:26.794Z,43.02
2018-07-06T14:12:25.679Z,43.22